sensor_id;sensor_type;location;lat;lon;timestamp;P1;durP1;ratioP1;P2;durP2;ratioP2
58978;SDS011;44763;50.464;30.612;2024-03-23T00:51:49;19.30;;;16.30;;
58978;SDS011;44763;50.464;30.612;2024-03-23T00:55:50;19.90;;;17.10;;
58978;SDS011;44763;50.464;30.612;2024-03-23T00:57:52;26.70;;;17.40;;
58978;SDS011;44763;50.464;30.612;2024-03-23T00:59:52;24.00;;;16.00;;
58978;SDS011;44763;50.464;30.612;2024-03-23T01:01:53;19.10;;;16.00;;
58978;SDS011;44763;50.464;30.612;2024-03-23T01:03:54;18.20;;;16.20;;
58978;SDS011;44763;50.464;30.612;2024-03-23T01:05:58;20.30;;;17.60;;
58978;SDS011;44763;50.464;30.612;2024-03-23T01:08:00;23.70;;;16.90;;
58978;SDS011;44763;50.464;30.612;2024-03-23T01:10:01;18.40;;;16.00;;
58978;SDS011;44763;50.464;30.612;2024-03-23T01:12:01;19.10;;;15.80;;
58978;SDS011;44763;50.464;30.612;2024-03-23T01:14:04;22.90;;;17.10;;
58978;SDS011;44763;50.464;30.612;2024-03-23T01:16:05;23.90;;;16.40;;
58978;SDS011;44763;50.464;30.612;2024-03-23T01:18:05;19.90;;;15.70;;
58978;SDS011;44763;50.464;30.612;2024-03-23T01:20:06;19.30;;;16.20;;
58978;SDS011;44763;50.464;30.612;2024-03-23T01:22:07;19.10;;;16.60;;
58978;SDS011;44763;50.464;30.612;2024-03-23T01:24:10;19.80;;;15.10;;
58978;SDS011;44763;50.464;30.612;2024-03-23T01:26:11;19.70;;;15.40;;
58978;SDS011;44763;50.464;30.612;2024-03-23T01:28:12;20.90;;;16.50;;
58978;SDS011;44763;50.464;30.612;2024-03-23T01:30:12;20.00;;;16.90;;
58978;SDS011;44763;50.464;30.612;2024-03-23T01:32:14;22.40;;;17.50;;
58978;SDS011;44763;50.464;30.612;2024-03-23T01:34:15;27.80;;;16.50;;
58978;SDS011;44763;50.464;30.612;2024-03-23T01:36:15;20.60;;;17.10;;
58978;SDS011;44763;50.464;30.612;2024-03-23T01:38:16;21.30;;;16.80;;
58978;SDS011;44763;50.464;30.612;2024-03-23T01:40:17;22.90;;;17.10;;
58978;SDS011;44763;50.464;30.612;2024-03-23T01:42:17;19.50;;;17.40;;
58978;SDS011;44763;50.464;30.612;2024-03-23T01:44:18;21.80;;;18.00;;
58978;SDS011;44763;50.464;30.612;2024-03-23T01:46:19;19.20;;;15.70;;
58978;SDS011;44763;50.464;30.612;2024-03-23T01:48:20;25.60;;;17.70;;
58978;SDS011;44763;50.464;30.612;2024-03-23T01:50:21;20.70;;;16.20;;
58978;SDS011;44763;50.464;30.612;2024-03-23T01:52:24;21.90;;;17.60;;
58978;SDS011;44763;50.464;30.612;2024-03-23T01:54:25;21.60;;;18.10;;
58978;SDS011;44763;50.464;30.612;2024-03-23T01:56:26;22.50;;;17.30;;
58978;SDS011;44763;50.464;30.612;2024-03-23T01:58:26;21.10;;;15.80;;
58978;SDS011;44763;50.464;30.612;2024-03-23T02:00:27;18.80;;;16.10;;
58978;SDS011;44763;50.464;30.612;2024-03-23T02:02:28;20.80;;;16.70;;
58978;SDS011;44763;50.464;30.612;2024-03-23T02:04:29;18.50;;;16.20;;
58978;SDS011;44763;50.464;30.612;2024-03-23T02:06:30;21.90;;;16.40;;
58978;SDS011;44763;50.464;30.612;2024-03-23T02:08:31;25.60;;;17.40;;
58978;SDS011;44763;50.464;30.612;2024-03-23T02:10:31;19.40;;;16.90;;
58978;SDS011;44763;50.464;30.612;2024-03-23T02:12:32;18.60;;;15.70;;
58978;SDS011;44763;50.464;30.612;2024-03-23T02:14:33;20.30;;;15.90;;
58978;SDS011;44763;50.464;30.612;2024-03-23T02:16:34;21.60;;;17.60;;
58978;SDS011;44763;50.464;30.612;2024-03-23T02:18:35;19.80;;;15.60;;
58978;SDS011;44763;50.464;30.612;2024-03-23T02:20:36;20.40;;;14.60;;
58978;SDS011;44763;50.464;30.612;2024-03-23T02:22:38;25.00;;;16.10;;
58978;SDS011;44763;50.464;30.612;2024-03-23T02:24:39;17.00;;;14.00;;
58978;SDS011;44763;50.464;30.612;2024-03-23T02:26:40;18.70;;;16.80;;
58978;SDS011;44763;50.464;30.612;2024-03-23T02:28:41;21.00;;;17.00;;
58978;SDS011;44763;50.464;30.612;2024-03-23T02:30:42;21.60;;;15.90;;
58978;SDS011;44763;50.464;30.612;2024-03-23T02:32:43;21.60;;;16.30;;
58978;SDS011;44763;50.464;30.612;2024-03-23T02:34:43;17.60;;;15.00;;
58978;SDS011;44763;50.464;30.612;2024-03-23T02:36:44;17.70;;;15.80;;
58978;SDS011;44763;50.464;30.612;2024-03-23T02:38:45;18.70;;;16.30;;
58978;SDS011;44763;50.464;30.612;2024-03-23T02:40:45;20.60;;;16.10;;
58978;SDS011;44763;50.464;30.612;2024-03-23T02:42:46;18.80;;;16.20;;
58978;SDS011;44763;50.464;30.612;2024-03-23T02:44:47;20.80;;;15.30;;
58978;SDS011;44763;50.464;30.612;2024-03-23T02:46:47;20.70;;;16.50;;
58978;SDS011;44763;50.464;30.612;2024-03-23T02:48:48;18.80;;;16.00;;
58978;SDS011;44763;50.464;30.612;2024-03-23T02:50:49;22.10;;;15.60;;
58978;SDS011;44763;50.464;30.612;2024-03-23T02:52:50;18.10;;;16.20;;
58978;SDS011;44763;50.464;30.612;2024-03-23T02:54:51;24.40;;;17.10;;
58978;SDS011;44763;50.464;30.612;2024-03-23T02:56:52;19.80;;;15.70;;
58978;SDS011;44763;50.464;30.612;2024-03-23T02:58:53;17.00;;;15.10;;
58978;SDS011;44763;50.464;30.612;2024-03-23T03:00:54;19.20;;;15.30;;
58978;SDS011;44763;50.464;30.612;2024-03-23T03:02:54;20.30;;;15.10;;
58978;SDS011;44763;50.464;30.612;2024-03-23T03:04:56;20.30;;;16.60;;
58978;SDS011;44763;50.464;30.612;2024-03-23T03:06:57;17.40;;;15.30;;
58978;SDS011;44763;50.464;30.612;2024-03-23T03:08:57;19.50;;;16.00;;
58978;SDS011;44763;50.464;30.612;2024-03-23T03:10:58;18.10;;;16.30;;
58978;SDS011;44763;50.464;30.612;2024-03-23T03:12:59;23.20;;;16.60;;
58978;SDS011;44763;50.464;30.612;2024-03-23T03:14:59;18.20;;;16.30;;
58978;SDS011;44763;50.464;30.612;2024-03-23T03:17:00;22.00;;;16.80;;
58978;SDS011;44763;50.464;30.612;2024-03-23T03:19:01;21.20;;;15.70;;
58978;SDS011;44763;50.464;30.612;2024-03-23T03:21:02;17.70;;;15.20;;
58978;SDS011;44763;50.464;30.612;2024-03-23T03:23:03;18.00;;;16.10;;
58978;SDS011;44763;50.464;30.612;2024-03-23T03:25:05;20.70;;;17.00;;
58978;SDS011;44763;50.464;30.612;2024-03-23T03:27:07;24.00;;;17.00;;
58978;SDS011;44763;50.464;30.612;2024-03-23T03:29:08;16.70;;;14.90;;
58978;SDS011;44763;50.464;30.612;2024-03-23T03:31:09;19.60;;;15.60;;
58978;SDS011;44763;50.464;30.612;2024-03-23T03:33:10;20.40;;;16.30;;
58978;SDS011;44763;50.464;30.612;2024-03-23T03:35:11;19.00;;;16.70;;
58978;SDS011;44763;50.464;30.612;2024-03-23T03:37:12;21.30;;;15.40;;
58978;SDS011;44763;50.464;30.612;2024-03-23T03:39:12;23.30;;;16.30;;
58978;SDS011;44763;50.464;30.612;2024-03-23T03:41:13;22.00;;;16.50;;
58978;SDS011;44763;50.464;30.612;2024-03-23T03:43:14;17.30;;;15.50;;
58978;SDS011;44763;50.464;30.612;2024-03-23T03:45:15;19.80;;;16.10;;
58978;SDS011;44763;50.464;30.612;2024-03-23T03:47:15;18.20;;;14.50;;
58978;SDS011;44763;50.464;30.612;2024-03-23T03:49:16;22.40;;;16.40;;
58978;SDS011;44763;50.464;30.612;2024-03-23T03:51:17;18.30;;;15.00;;
58978;SDS011;44763;50.464;30.612;2024-03-23T03:53:17;19.70;;;16.40;;
58978;SDS011;44763;50.464;30.612;2024-03-23T03:55:19;20.70;;;15.50;;
58978;SDS011;44763;50.464;30.612;2024-03-23T03:57:20;26.50;;;18.30;;
58978;SDS011;44763;50.464;30.612;2024-03-23T03:59:20;19.50;;;16.50;;
58978;SDS011;44763;50.464;30.612;2024-03-23T04:01:21;20.40;;;17.80;;
58978;SDS011;44763;50.464;30.612;2024-03-23T04:03:22;24.80;;;21.90;;
58978;SDS011;44763;50.464;30.612;2024-03-23T04:05:22;26.20;;;19.60;;
58978;SDS011;44763;50.464;30.612;2024-03-23T04:07:24;21.80;;;18.40;;
58978;SDS011;44763;50.464;30.612;2024-03-23T04:09:24;22.60;;;18.80;;
58978;SDS011;44763;50.464;30.612;2024-03-23T04:11:25;28.20;;;17.80;;
58978;SDS011;44763;50.464;30.612;2024-03-23T04:13:26;22.70;;;17.60;;
58978;SDS011;44763;50.464;30.612;2024-03-23T04:15:26;21.50;;;16.60;;
58978;SDS011;44763;50.464;30.612;2024-03-23T04:17:27;20.20;;;17.10;;
58978;SDS011;44763;50.464;30.612;2024-03-23T04:19:32;21.40;;;16.00;;
58978;SDS011;44763;50.464;30.612;2024-03-23T04:21:32;20.80;;;15.70;;
58978;SDS011;44763;50.464;30.612;2024-03-23T04:23:33;20.70;;;16.50;;
58978;SDS011;44763;50.464;30.612;2024-03-23T04:25:34;20.20;;;17.10;;
58978;SDS011;44763;50.464;30.612;2024-03-23T04:27:35;22.40;;;16.60;;
58978;SDS011;44763;50.464;30.612;2024-03-23T04:29:36;21.40;;;16.40;;
58978;SDS011;44763;50.464;30.612;2024-03-23T04:31:36;20.40;;;16.40;;
58978;SDS011;44763;50.464;30.612;2024-03-23T04:33:37;21.50;;;16.80;;
58978;SDS011;44763;50.464;30.612;2024-03-23T04:35:38;17.60;;;14.60;;
58978;SDS011;44763;50.464;30.612;2024-03-23T04:37:38;23.50;;;17.30;;
58978;SDS011;44763;50.464;30.612;2024-03-23T04:39:42;27.00;;;18.10;;
58978;SDS011;44763;50.464;30.612;2024-03-23T04:41:42;20.50;;;16.10;;
58978;SDS011;44763;50.464;30.612;2024-03-23T04:43:43;20.60;;;16.50;;
58978;SDS011;44763;50.464;30.612;2024-03-23T04:45:44;19.90;;;16.10;;
58978;SDS011;44763;50.464;30.612;2024-03-23T04:47:45;18.90;;;16.30;;
58978;SDS011;44763;50.464;30.612;2024-03-23T04:49:45;21.10;;;16.40;;
58978;SDS011;44763;50.464;30.612;2024-03-23T04:51:46;19.20;;;15.40;;
58978;SDS011;44763;50.464;30.612;2024-03-23T04:53:47;19.90;;;15.60;;
58978;SDS011;44763;50.464;30.612;2024-03-23T04:55:48;18.40;;;15.70;;
58978;SDS011;44763;50.464;30.612;2024-03-23T04:57:49;19.30;;;15.90;;
58978;SDS011;44763;50.464;30.612;2024-03-23T04:59:50;17.70;;;15.50;;
58978;SDS011;44763;50.464;30.612;2024-03-23T05:01:50;21.60;;;16.50;;
58978;SDS011;44763;50.464;30.612;2024-03-23T05:03:51;19.50;;;15.60;;
58978;SDS011;44763;50.464;30.612;2024-03-23T05:05:53;27.10;;;17.30;;
58978;SDS011;44763;50.464;30.612;2024-03-23T05:07:54;27.40;;;16.50;;
58978;SDS011;44763;50.464;30.612;2024-03-23T05:09:54;18.70;;;16.50;;
58978;SDS011;44763;50.464;30.612;2024-03-23T05:11:56;19.60;;;16.20;;
58978;SDS011;44763;50.464;30.612;2024-03-23T05:13:57;20.10;;;16.40;;
58978;SDS011;44763;50.464;30.612;2024-03-23T05:15:58;18.90;;;16.00;;
58978;SDS011;44763;50.464;30.612;2024-03-23T05:17:59;21.70;;;16.40;;
58978;SDS011;44763;50.464;30.612;2024-03-23T05:20:00;21.80;;;17.20;;
58978;SDS011;44763;50.464;30.612;2024-03-23T05:22:01;20.10;;;17.70;;
58978;SDS011;44763;50.464;30.612;2024-03-23T05:24:01;19.90;;;16.40;;
58978;SDS011;44763;50.464;30.612;2024-03-23T05:26:03;20.70;;;16.20;;
58978;SDS011;44763;50.464;30.612;2024-03-23T05:28:05;22.00;;;16.90;;
58978;SDS011;44763;50.464;30.612;2024-03-23T05:30:06;18.60;;;16.50;;
58978;SDS011;44763;50.464;30.612;2024-03-23T05:32:07;19.00;;;16.50;;
58978;SDS011;44763;50.464;30.612;2024-03-23T05:34:08;24.00;;;18.00;;
58978;SDS011;44763;50.464;30.612;2024-03-23T05:36:09;19.60;;;16.10;;
58978;SDS011;44763;50.464;30.612;2024-03-23T05:38:12;24.70;;;17.40;;
58978;SDS011;44763;50.464;30.612;2024-03-23T05:40:14;18.80;;;16.20;;
58978;SDS011;44763;50.464;30.612;2024-03-23T05:42:16;19.40;;;16.50;;
58978;SDS011;44763;50.464;30.612;2024-03-23T05:44:17;21.90;;;17.70;;
58978;SDS011;44763;50.464;30.612;2024-03-23T05:46:18;20.10;;;18.00;;
58978;SDS011;44763;50.464;30.612;2024-03-23T05:48:19;23.70;;;18.00;;
58978;SDS011;44763;50.464;30.612;2024-03-23T05:50:20;21.90;;;17.70;;
58978;SDS011;44763;50.464;30.612;2024-03-23T05:52:21;23.60;;;17.60;;
58978;SDS011;44763;50.464;30.612;2024-03-23T05:54:22;21.80;;;17.20;;
58978;SDS011;44763;50.464;30.612;2024-03-23T05:56:22;22.00;;;17.20;;
58978;SDS011;44763;50.464;30.612;2024-03-23T05:58:23;19.70;;;17.50;;
58978;SDS011;44763;50.464;30.612;2024-03-23T06:02:47;23.60;;;17.60;;
58978;SDS011;44763;50.464;30.612;2024-03-23T06:04:48;21.40;;;16.90;;
58978;SDS011;44763;50.464;30.612;2024-03-23T06:06:50;20.80;;;17.00;;
58978;SDS011;44763;50.464;30.612;2024-03-23T06:08:53;20.20;;;17.80;;
58978;SDS011;44763;50.464;30.612;2024-03-23T06:10:53;20.30;;;17.00;;
58978;SDS011;44763;50.464;30.612;2024-03-23T06:12:54;23.00;;;16.30;;
58978;SDS011;44763;50.464;30.612;2024-03-23T06:14:55;23.00;;;18.30;;
58978;SDS011;44763;50.464;30.612;2024-03-23T06:16:56;19.10;;;17.10;;
58978;SDS011;44763;50.464;30.612;2024-03-23T06:18:57;19.90;;;17.50;;
58978;SDS011;44763;50.464;30.612;2024-03-23T06:20:59;20.10;;;16.60;;
58978;SDS011;44763;50.464;30.612;2024-03-23T06:23:00;17.90;;;15.80;;
58978;SDS011;44763;50.464;30.612;2024-03-23T06:25:02;20.60;;;16.00;;
58978;SDS011;44763;50.464;30.612;2024-03-23T06:27:03;23.40;;;18.00;;
58978;SDS011;44763;50.464;30.612;2024-03-23T06:29:04;20.30;;;17.20;;
58978;SDS011;44763;50.464;30.612;2024-03-23T06:31:08;18.40;;;15.60;;
58978;SDS011;44763;50.464;30.612;2024-03-23T06:33:11;20.10;;;16.90;;
58978;SDS011;44763;50.464;30.612;2024-03-23T06:35:12;18.30;;;16.10;;
58978;SDS011;44763;50.464;30.612;2024-03-23T06:37:14;20.40;;;17.00;;
58978;SDS011;44763;50.464;30.612;2024-03-23T06:39:15;18.10;;;15.50;;
58978;SDS011;44763;50.464;30.612;2024-03-23T06:41:19;18.60;;;16.30;;
58978;SDS011;44763;50.464;30.612;2024-03-23T06:43:20;20.60;;;16.50;;
58978;SDS011;44763;50.464;30.612;2024-03-23T06:45:21;18.40;;;16.50;;
58978;SDS011;44763;50.464;30.612;2024-03-23T06:47:23;20.20;;;16.50;;
58978;SDS011;44763;50.464;30.612;2024-03-23T06:49:25;18.10;;;15.60;;
58978;SDS011;44763;50.464;30.612;2024-03-23T06:51:26;21.00;;;17.30;;
58978;SDS011;44763;50.464;30.612;2024-03-23T06:53:27;23.70;;;16.10;;
58978;SDS011;44763;50.464;30.612;2024-03-23T06:55:28;21.30;;;16.90;;
58978;SDS011;44763;50.464;30.612;2024-03-23T06:57:28;20.80;;;16.00;;
58978;SDS011;44763;50.464;30.612;2024-03-23T06:59:29;21.20;;;16.00;;
58978;SDS011;44763;50.464;30.612;2024-03-23T07:01:30;25.10;;;15.60;;
58978;SDS011;44763;50.464;30.612;2024-03-23T07:03:30;20.60;;;15.20;;
58978;SDS011;44763;50.464;30.612;2024-03-23T07:05:31;22.10;;;16.10;;
58978;SDS011;44763;50.464;30.612;2024-03-23T07:07:32;20.70;;;17.00;;
58978;SDS011;44763;50.464;30.612;2024-03-23T07:09:33;19.60;;;16.70;;
58978;SDS011;44763;50.464;30.612;2024-03-23T07:11:33;20.50;;;14.80;;
58978;SDS011;44763;50.464;30.612;2024-03-23T07:13:34;22.60;;;16.40;;
58978;SDS011;44763;50.464;30.612;2024-03-23T07:15:36;18.40;;;15.40;;
58978;SDS011;44763;50.464;30.612;2024-03-23T07:17:37;17.00;;;14.90;;
58978;SDS011;44763;50.464;30.612;2024-03-23T07:19:38;17.60;;;15.30;;
58978;SDS011;44763;50.464;30.612;2024-03-23T07:21:40;19.90;;;14.50;;
58978;SDS011;44763;50.464;30.612;2024-03-23T07:23:42;20.60;;;15.50;;
58978;SDS011;44763;50.464;30.612;2024-03-23T07:26:00;21.60;;;16.00;;
58978;SDS011;44763;50.464;30.612;2024-03-23T07:28:03;18.50;;;16.50;;
58978;SDS011;44763;50.464;30.612;2024-03-23T07:30:06;18.10;;;14.40;;
58978;SDS011;44763;50.464;30.612;2024-03-23T07:32:09;15.90;;;14.20;;
58978;SDS011;44763;50.464;30.612;2024-03-23T07:34:12;16.80;;;13.80;;
58978;SDS011;44763;50.464;30.612;2024-03-23T07:36:14;16.30;;;13.30;;
58978;SDS011;44763;50.464;30.612;2024-03-23T07:38:15;20.30;;;14.20;;
58978;SDS011;44763;50.464;30.612;2024-03-23T07:40:16;17.30;;;14.40;;
58978;SDS011;44763;50.464;30.612;2024-03-23T07:42:16;16.70;;;13.70;;
58978;SDS011;44763;50.464;30.612;2024-03-23T07:44:17;17.90;;;14.10;;
58978;SDS011;44763;50.464;30.612;2024-03-23T07:46:18;19.10;;;13.70;;
58978;SDS011;44763;50.464;30.612;2024-03-23T07:48:21;18.30;;;14.50;;
58978;SDS011;44763;50.464;30.612;2024-03-23T07:50:25;17.80;;;13.30;;
58978;SDS011;44763;50.464;30.612;2024-03-23T07:52:28;18.10;;;14.20;;
58978;SDS011;44763;50.464;30.612;2024-03-23T07:54:29;17.00;;;12.90;;
58978;SDS011;44763;50.464;30.612;2024-03-23T07:56:30;15.00;;;12.50;;
58978;SDS011;44763;50.464;30.612;2024-03-23T07:58:33;16.20;;;13.30;;
58978;SDS011;44763;50.464;30.612;2024-03-23T08:00:35;18.70;;;14.30;;
58978;SDS011;44763;50.464;30.612;2024-03-23T08:02:37;16.00;;;13.90;;
58978;SDS011;44763;50.464;30.612;2024-03-23T08:04:39;17.30;;;13.50;;
58978;SDS011;44763;50.464;30.612;2024-03-23T08:06:41;18.30;;;14.20;;
58978;SDS011;44763;50.464;30.612;2024-03-23T08:08:42;18.90;;;14.60;;
58978;SDS011;44763;50.464;30.612;2024-03-23T08:10:49;18.90;;;14.60;;
58978;SDS011;44763;50.464;30.612;2024-03-23T08:12:53;18.00;;;14.50;;
58978;SDS011;44763;50.464;30.612;2024-03-23T08:14:54;16.70;;;13.20;;
58978;SDS011;44763;50.464;30.612;2024-03-23T08:16:55;15.50;;;13.40;;
58978;SDS011;44763;50.464;30.612;2024-03-23T08:18:57;14.90;;;13.30;;
58978;SDS011;44763;50.464;30.612;2024-03-23T08:21:02;16.50;;;14.00;;
58978;SDS011;44763;50.464;30.612;2024-03-23T08:23:05;18.50;;;14.90;;
58978;SDS011;44763;50.464;30.612;2024-03-23T08:25:07;17.60;;;13.90;;
58978;SDS011;44763;50.464;30.612;2024-03-23T08:27:08;20.70;;;15.50;;
58978;SDS011;44763;50.464;30.612;2024-03-23T08:29:09;20.10;;;15.40;;
58978;SDS011;44763;50.464;30.612;2024-03-23T08:31:10;16.80;;;15.00;;
58978;SDS011;44763;50.464;30.612;2024-03-23T08:33:14;18.10;;;16.10;;
58978;SDS011;44763;50.464;30.612;2024-03-23T08:35:14;20.80;;;15.30;;
58978;SDS011;44763;50.464;30.612;2024-03-23T08:37:15;16.80;;;15.00;;
58978;SDS011;44763;50.464;30.612;2024-03-23T08:39:16;19.90;;;14.70;;
58978;SDS011;44763;50.464;30.612;2024-03-23T08:41:17;18.10;;;13.80;;
58978;SDS011;44763;50.464;30.612;2024-03-23T08:43:19;16.10;;;13.90;;
58978;SDS011;44763;50.464;30.612;2024-03-23T08:45:19;17.30;;;15.20;;
58978;SDS011;44763;50.464;30.612;2024-03-23T08:47:20;15.70;;;14.00;;
58978;SDS011;44763;50.464;30.612;2024-03-23T08:49:21;16.80;;;14.50;;
58978;SDS011;44763;50.464;30.612;2024-03-23T08:51:21;15.20;;;12.40;;
58978;SDS011;44763;50.464;30.612;2024-03-23T08:53:22;16.50;;;13.70;;
58978;SDS011;44763;50.464;30.612;2024-03-23T08:55:22;19.20;;;13.30;;
58978;SDS011;44763;50.464;30.612;2024-03-23T08:57:23;16.60;;;14.80;;
58978;SDS011;44763;50.464;30.612;2024-03-23T08:59:24;19.10;;;14.30;;
58978;SDS011;44763;50.464;30.612;2024-03-23T09:01:24;19.10;;;14.60;;
58978;SDS011;44763;50.464;30.612;2024-03-23T09:03:25;18.00;;;14.80;;
58978;SDS011;44763;50.464;30.612;2024-03-23T09:05:26;21.00;;;15.10;;
58978;SDS011;44763;50.464;30.612;2024-03-23T09:07:28;16.70;;;14.90;;
58978;SDS011;44763;50.464;30.612;2024-03-23T09:09:29;17.20;;;15.40;;
58978;SDS011;44763;50.464;30.612;2024-03-23T09:11:30;17.30;;;15.10;;
58978;SDS011;44763;50.464;30.612;2024-03-23T09:13:31;17.20;;;13.70;;
58978;SDS011;44763;50.464;30.612;2024-03-23T09:15:34;15.90;;;14.00;;
58978;SDS011;44763;50.464;30.612;2024-03-23T09:17:35;16.60;;;13.10;;
58978;SDS011;44763;50.464;30.612;2024-03-23T09:19:36;15.10;;;13.60;;
58978;SDS011;44763;50.464;30.612;2024-03-23T09:21:36;19.20;;;13.80;;
58978;SDS011;44763;50.464;30.612;2024-03-23T09:23:37;16.30;;;14.60;;
58978;SDS011;44763;50.464;30.612;2024-03-23T09:25:38;16.50;;;14.50;;
58978;SDS011;44763;50.464;30.612;2024-03-23T09:27:39;21.20;;;14.70;;
58978;SDS011;44763;50.464;30.612;2024-03-23T09:29:40;17.50;;;14.90;;
58978;SDS011;44763;50.464;30.612;2024-03-23T09:31:41;15.90;;;14.00;;
58978;SDS011;44763;50.464;30.612;2024-03-23T09:33:42;17.70;;;14.90;;
58978;SDS011;44763;50.464;30.612;2024-03-23T09:35:43;16.80;;;14.40;;
58978;SDS011;44763;50.464;30.612;2024-03-23T09:37:45;17.20;;;15.30;;
58978;SDS011;44763;50.464;30.612;2024-03-23T09:39:45;17.10;;;15.40;;
58978;SDS011;44763;50.464;30.612;2024-03-23T09:41:46;19.30;;;16.40;;
58978;SDS011;44763;50.464;30.612;2024-03-23T09:43:48;17.30;;;14.80;;
58978;SDS011;44763;50.464;30.612;2024-03-23T09:45:50;18.80;;;14.70;;
58978;SDS011;44763;50.464;30.612;2024-03-23T09:47:51;17.90;;;16.00;;
58978;SDS011;44763;50.464;30.612;2024-03-23T09:49:52;18.50;;;16.10;;
58978;SDS011;44763;50.464;30.612;2024-03-23T09:51:53;21.20;;;15.70;;
58978;SDS011;44763;50.464;30.612;2024-03-23T09:53:55;19.00;;;16.70;;
58978;SDS011;44763;50.464;30.612;2024-03-23T09:55:57;17.20;;;14.70;;
58978;SDS011;44763;50.464;30.612;2024-03-23T09:57:59;20.40;;;15.00;;
58978;SDS011;44763;50.464;30.612;2024-03-23T10:00:00;18.60;;;16.30;;
58978;SDS011;44763;50.464;30.612;2024-03-23T10:02:01;18.60;;;16.60;;
58978;SDS011;44763;50.464;30.612;2024-03-23T10:04:02;20.80;;;15.70;;
58978;SDS011;44763;50.464;30.612;2024-03-23T10:06:04;21.30;;;16.10;;
58978;SDS011;44763;50.464;30.612;2024-03-23T10:10:15;17.50;;;14.60;;
58978;SDS011;44763;50.464;30.612;2024-03-23T10:12:17;17.40;;;15.60;;
58978;SDS011;44763;50.464;30.612;2024-03-23T10:14:29;20.50;;;15.80;;
58978;SDS011;44763;50.464;30.612;2024-03-23T10:16:30;18.10;;;14.20;;
58978;SDS011;44763;50.464;30.612;2024-03-23T10:18:31;16.80;;;14.70;;
58978;SDS011;44763;50.464;30.612;2024-03-23T10:20:38;16.00;;;14.30;;
58978;SDS011;44763;50.464;30.612;2024-03-23T10:22:39;21.40;;;14.80;;
58978;SDS011;44763;50.464;30.612;2024-03-23T10:24:40;16.70;;;15.00;;
58978;SDS011;44763;50.464;30.612;2024-03-23T10:26:42;23.20;;;15.80;;
58978;SDS011;44763;50.464;30.612;2024-03-23T10:28:52;20.90;;;15.90;;
58978;SDS011;44763;50.464;30.612;2024-03-23T10:30:54;17.10;;;15.10;;
58978;SDS011;44763;50.464;30.612;2024-03-23T10:33:06;20.60;;;15.50;;
58978;SDS011;44763;50.464;30.612;2024-03-23T10:35:18;16.00;;;14.40;;
58978;SDS011;44763;50.464;30.612;2024-03-23T10:37:23;16.30;;;14.60;;
58978;SDS011;44763;50.464;30.612;2024-03-23T10:39:24;16.70;;;14.90;;
58978;SDS011;44763;50.464;30.612;2024-03-23T10:41:28;15.80;;;14.10;;
58978;SDS011;44763;50.464;30.612;2024-03-23T10:43:32;17.70;;;13.40;;
58978;SDS011;44763;50.464;30.612;2024-03-23T10:45:33;15.30;;;13.70;;
58978;SDS011;44763;50.464;30.612;2024-03-23T10:47:34;16.10;;;13.60;;
58978;SDS011;44763;50.464;30.612;2024-03-23T10:49:36;15.90;;;12.60;;
58978;SDS011;44763;50.464;30.612;2024-03-23T10:51:37;15.50;;;13.90;;
58978;SDS011;44763;50.464;30.612;2024-03-23T10:53:38;15.80;;;14.00;;
58978;SDS011;44763;50.464;30.612;2024-03-23T10:55:39;15.30;;;13.70;;
58978;SDS011;44763;50.464;30.612;2024-03-23T10:57:45;16.50;;;13.90;;
58978;SDS011;44763;50.464;30.612;2024-03-23T10:59:51;16.90;;;13.20;;
58978;SDS011;44763;50.464;30.612;2024-03-23T11:01:56;14.50;;;13.00;;
58978;SDS011;44763;50.464;30.612;2024-03-23T11:03:58;17.90;;;13.50;;
58978;SDS011;44763;50.464;30.612;2024-03-23T11:05:59;14.00;;;12.60;;
58978;SDS011;44763;50.464;30.612;2024-03-23T11:08:03;14.10;;;12.70;;
58978;SDS011;44763;50.464;30.612;2024-03-23T11:10:06;13.20;;;11.50;;
58978;SDS011;44763;50.464;30.612;2024-03-23T11:12:25;14.20;;;12.60;;
58978;SDS011;44763;50.464;30.612;2024-03-23T11:14:32;13.20;;;11.90;;
58978;SDS011;44763;50.464;30.612;2024-03-23T11:16:34;16.50;;;13.10;;
58978;SDS011;44763;50.464;30.612;2024-03-23T11:18:36;13.70;;;12.20;;
58978;SDS011;44763;50.464;30.612;2024-03-23T11:20:38;14.30;;;12.20;;
58978;SDS011;44763;50.464;30.612;2024-03-23T11:22:42;13.80;;;12.50;;
58978;SDS011;44763;50.464;30.612;2024-03-23T11:24:54;12.40;;;11.10;;
58978;SDS011;44763;50.464;30.612;2024-03-23T11:26:55;13.40;;;12.10;;
58978;SDS011;44763;50.464;30.612;2024-03-23T11:29:11;13.30;;;11.80;;
58978;SDS011;44763;50.464;30.612;2024-03-23T11:31:14;16.20;;;11.60;;
58978;SDS011;44763;50.464;30.612;2024-03-23T11:33:15;11.30;;;10.10;;
58978;SDS011;44763;50.464;30.612;2024-03-23T11:35:31;14.40;;;11.50;;
58978;SDS011;44763;50.464;30.612;2024-03-23T11:37:33;11.90;;;10.40;;
58978;SDS011;44763;50.464;30.612;2024-03-23T11:39:34;12.20;;;10.90;;
58978;SDS011;44763;50.464;30.612;2024-03-23T11:41:35;12.10;;;10.90;;
58978;SDS011;44763;50.464;30.612;2024-03-23T11:43:36;15.30;;;11.40;;
58978;SDS011;44763;50.464;30.612;2024-03-23T11:45:40;12.10;;;10.80;;
58978;SDS011;44763;50.464;30.612;2024-03-23T11:47:43;12.50;;;10.20;;
58978;SDS011;44763;50.464;30.612;2024-03-23T11:49:44;11.80;;;10.20;;
58978;SDS011;44763;50.464;30.612;2024-03-23T11:51:44;12.40;;;11.10;;
58978;SDS011;44763;50.464;30.612;2024-03-23T11:53:45;11.70;;;10.40;;
58978;SDS011;44763;50.464;30.612;2024-03-23T11:55:50;12.50;;;11.20;;
58978;SDS011;44763;50.464;30.612;2024-03-23T11:57:58;12.90;;;11.10;;
58978;SDS011;44763;50.464;30.612;2024-03-23T11:59:59;12.20;;;11.00;;
58978;SDS011;44763;50.464;30.612;2024-03-23T12:02:00;12.90;;;11.50;;
58978;SDS011;44763;50.464;30.612;2024-03-23T12:04:06;13.80;;;11.40;;
58978;SDS011;44763;50.464;30.612;2024-03-23T12:06:06;13.10;;;11.50;;
58978;SDS011;44763;50.464;30.612;2024-03-23T12:10:21;13.60;;;11.50;;
58978;SDS011;44763;50.464;30.612;2024-03-23T12:12:22;13.70;;;11.50;;
58978;SDS011;44763;50.464;30.612;2024-03-23T12:14:23;12.50;;;10.60;;
58978;SDS011;44763;50.464;30.612;2024-03-23T12:16:24;11.80;;;10.50;;
58978;SDS011;44763;50.464;30.612;2024-03-23T12:18:28;15.40;;;12.10;;
58978;SDS011;44763;50.464;30.612;2024-03-23T12:20:28;13.30;;;12.10;;
58978;SDS011;44763;50.464;30.612;2024-03-23T12:22:29;12.70;;;11.40;;
58978;SDS011;44763;50.464;30.612;2024-03-23T12:24:31;12.50;;;11.30;;
58978;SDS011;44763;50.464;30.612;2024-03-23T12:26:34;12.80;;;11.50;;
58978;SDS011;44763;50.464;30.612;2024-03-23T12:28:35;11.70;;;10.50;;
58978;SDS011;44763;50.464;30.612;2024-03-23T12:30:37;13.00;;;11.70;;
58978;SDS011;44763;50.464;30.612;2024-03-23T12:32:40;14.80;;;11.00;;
58978;SDS011;44763;50.464;30.612;2024-03-23T12:34:40;14.10;;;11.50;;
58978;SDS011;44763;50.464;30.612;2024-03-23T12:36:44;12.30;;;11.00;;
58978;SDS011;44763;50.464;30.612;2024-03-23T12:38:45;11.90;;;10.30;;
58978;SDS011;44763;50.464;30.612;2024-03-23T12:40:46;12.40;;;11.20;;